Time;durP1;ratioP1;P1;durP2;ratioP2;P2;SDS_P1;SDS_P2;PMS_P1;PMS_P2;Temp;Humidity;BMP_temperature;BMP_pressure;BME280_temperature;BME280_humidity;BME280_pressure;Samples;Min_cycle;Max_cycle;Signal;HPM_P1;HPM_P2
2021/06/12 00:01:53;;;;;;;18.47;16.87;;;;;;;;;;5035884;28;20180;-92
2021/06/12 00:04:19;;;;;;;18.67;16.70;;;;;;;;;;5035611;28;20638;-94
2021/06/12 00:06:44;;;;;;;18.47;16.70;;;;;;;;;;5017792;28;20196;-92
2021/06/12 00:09:09;;;;;;;18.30;16.50;;;;;;;;;;5035750;28;20214;-89
2021/06/12 00:11:35;;;;;;;18.43;16.73;;;;;;;;;;5040833;28;20223;-92
2021/06/12 00:14:00;;;;;;;17.37;15.80;;;;;;;;;;5055158;28;20606;-91
2021/06/12 00:16:25;;;;;;;17.27;15.67;;;;;;;;;;5037354;28;20171;-92
2021/06/12 00:18:51;;;;;;;17.87;16.27;;;;;;;;;;5054875;28;20168;-93
2021/06/12 00:21:16;;;;;;;18.37;16.00;;;;;;;;;;5055086;28;20262;-89
2021/06/12 00:23:41;;;;;;;17.93;16.23;;;;;;;;;;5054222;28;20541;-90
2021/06/12 00:26:07;;;;;;;17.93;16.23;;;;;;;;;;5037572;28;20203;-90
2021/06/12 00:28:32;;;;;;;19.73;17.17;;;;;;;;;;5054913;28;20266;-90
2021/06/12 00:30:58;;;;;;;18.73;16.93;;;;;;;;;;5054884;28;20684;-88
2021/06/12 00:33:23;;;;;;;18.47;16.77;;;;;;;;;;5054578;28;20175;-89
2021/06/12 00:35:48;;;;;;;18.63;16.73;;;;;;;;;;5036891;28;20186;-90
2021/06/12 00:38:14;;;;;;;18.30;16.57;;;;;;;;;;5055060;28;20630;-89
2021/06/12 00:40:39;;;;;;;18.43;16.70;;;;;;;;;;5054504;28;20168;-90
2021/06/12 00:43:04;;;;;;;19.10;17.20;;;;;;;;;;5054806;28;20598;-90
2021/06/12 00:45:31;;;;;;;18.27;16.57;;;;;;;;;;5054876;28;20246;-90
2021/06/12 00:47:56;;;;;;;18.27;16.47;;;;;;;;;;5054332;28;20179;-88
2021/06/12 00:50:23;;;;;;;19.87;17.90;;;;;;;;;;5059137;28;20175;-88
2021/06/12 00:52:49;;;;;;;18.70;16.90;;;;;;;;;;5079223;28;20156;-89
2021/06/12 00:55:15;;;;;;;19.70;17.70;;;;;;;;;;5079242;28;20160;-89
2021/06/12 00:57:41;;;;;;;18.77;17.03;;;;;;;;;;5079247;28;20202;-89
2021/06/12 01:00:12;;;;;;;18.83;17.03;;;;;;;;;;5079098;28;20153;-89
2021/06/12 01:02:37;;;;;;;18.70;16.90;;;;;;;;;;5079065;28;20156;-94
2021/06/12 01:05:06;;;;;;;19.67;17.67;;;;;;;;;;5078576;28;20238;-90
2021/06/12 01:07:31;;;;;;;19.00;17.20;;;;;;;;;;5054558;28;20172;-92
2021/06/12 01:09:57;;;;;;;18.87;17.13;;;;;;;;;;5036526;28;20224;-91
2021/06/12 01:12:33;;;;;;;18.23;16.63;;;;;;;;;;5036320;28;20231;-93
2021/06/12 01:15:00;;;;;;;18.83;16.97;;;;;;;;;;5036442;28;20167;-92
2021/06/12 01:17:29;;;;;;;20.13;18.03;;;;;;;;;;5036308;28;20175;-92
2021/06/12 01:19:54;;;;;;;19.63;17.73;;;;;;;;;;5036441;28;20187;-93
2021/06/12 01:22:25;;;;;;;18.90;17.10;;;;;;;;;;5036653;28;20176;-95
2021/06/12 01:24:56;;;;;;;17.60;16.00;;;;;;;;;;5036479;28;20264;-92
2021/06/12 01:27:21;;;;;;;18.70;16.83;;;;;;;;;;5054689;28;20204;-91
2021/06/12 01:30:05;;;;;;;19.60;17.67;;;;;;;;;;5054005;28;20250;-90
2021/06/12 01:32:32;;;;;;;19.57;17.67;;;;;;;;;;5053954;28;20168;-92
2021/06/12 01:34:58;;;;;;;19.10;17.30;;;;;;;;;;5053041;28;20588;-91
2021/06/12 01:37:24;;;;;;;19.33;17.70;;;;;;;;;;5054170;28;20202;-92
2021/06/12 01:39:50;;;;;;;20.57;18.43;;;;;;;;;;5053617;28;20619;-91
2021/06/12 01:42:16;;;;;;;20.57;18.50;;;;;;;;;;5053550;28;20179;-92
2021/06/12 01:44:42;;;;;;;19.70;17.90;;;;;;;;;;5053965;28;20277;-92
2021/06/12 01:47:08;;;;;;;20.63;18.53;;;;;;;;;;5036288;28;20237;-93
2021/06/12 01:49:35;;;;;;;20.27;18.13;;;;;;;;;;5035910;28;20225;-93
2021/06/12 01:52:01;;;;;;;19.87;17.90;;;;;;;;;;5054116;28;20171;-91
2021/06/12 01:54:27;;;;;;;19.33;17.53;;;;;;;;;;5036339;28;20267;-92
2021/06/12 01:56:53;;;;;;;20.83;18.73;;;;;;;;;;5035925;28;20663;-93
2021/06/12 01:59:19;;;;;;;19.83;18.03;;;;;;;;;;5053788;28;20594;-92
2021/06/12 02:01:48;;;;;;;19.43;17.63;;;;;;;;;;5053858;28;20195;-94
2021/06/12 02:04:16;;;;;;;20.13;18.30;;;;;;;;;;5054158;28;20175;-92
2021/06/12 02:06:42;;;;;;;20.07;18.17;;;;;;;;;;5036264;28;20180;-92
2021/06/12 02:09:08;;;;;;;21.37;19.10;;;;;;;;;;5053627;28;20196;-92
2021/06/12 02:11:34;;;;;;;20.90;18.80;;;;;;;;;;5035696;28;20263;-92
2021/06/12 02:13:59;;;;;;;20.93;18.93;;;;;;;;;;5053166;28;20191;-92
2021/06/12 02:16:25;;;;;;;21.30;19.27;;;;;;;;;;5053601;28;20263;-94
2021/06/12 02:18:51;;;;;;;20.73;18.80;;;;;;;;;;5035855;28;20522;-93
2021/06/12 02:21:19;;;;;;;21.40;19.30;;;;;;;;;;5053961;28;20255;-93
2021/06/12 02:23:44;;;;;;;23.80;20.47;;;;;;;;;;5036205;28;20168;-88
2021/06/12 02:26:12;;;;;;;26.27;20.50;;;;;;;;;;5053856;28;20284;-89
2021/06/12 02:28:38;;;;;;;21.10;19.07;;;;;;;;;;5053529;28;20631;-89
2021/06/12 02:31:26;;;;;;;21.30;19.20;;;;;;;;;;5053437;28;20198;-89
2021/06/12 02:33:52;;;;;;;19.50;17.70;;;;;;;;;;5047820;28;20291;-89
2021/06/12 02:36:19;;;;;;;20.23;18.43;;;;;;;;;;5053357;28;20630;-89
2021/06/12 02:38:44;;;;;;;19.80;17.90;;;;;;;;;;5053320;28;20199;-89
2021/06/12 02:41:10;;;;;;;20.23;18.23;;;;;;;;;;5053341;28;20171;-90
2021/06/12 02:43:35;;;;;;;20.53;18.60;;;;;;;;;;5053299;28;20682;-89
2021/06/12 02:46:09;;;;;;;21.43;19.33;;;;;;;;;;5053349;28;20202;-89
2021/06/12 02:48:36;;;;;;;20.77;18.87;;;;;;;;;;5056928;28;20183;-89
2021/06/12 02:51:02;;;;;;;20.20;18.13;;;;;;;;;;5038891;28;20636;-89
2021/06/12 02:53:29;;;;;;;20.27;18.20;;;;;;;;;;5056547;28;20164;-92
2021/06/12 02:55:55;;;;;;;20.93;18.90;;;;;;;;;;5056735;28;20183;-91
2021/06/12 02:58:22;;;;;;;20.80;18.70;;;;;;;;;;5056985;28;20246;-89
2021/06/12 03:00:48;;;;;;;21.13;19.03;;;;;;;;;;5056639;28;20284;-88
2021/06/12 03:03:13;;;;;;;19.63;17.87;;;;;;;;;;5056341;28;20168;-89
2021/06/12 03:05:41;;;;;;;19.87;17.93;;;;;;;;;;5056783;28;20549;-88
2021/06/12 03:08:07;;;;;;;19.67;17.87;;;;;;;;;;5056229;28;20179;-88
2021/06/12 03:10:33;;;;;;;19.30;17.53;;;;;;;;;;5038394;28;20279;-88
2021/06/12 03:13:02;;;;;;;18.87;17.07;;;;;;;;;;5057043;28;20191;-88
2021/06/12 03:15:27;;;;;;;19.40;17.57;;;;;;;;;;5038581;28;20187;-88
2021/06/12 03:17:53;;;;;;;18.73;16.83;;;;;;;;;;5056358;28;20176;-88
2021/06/12 03:20:19;;;;;;;18.70;16.47;;;;;;;;;;5056467;28;20168;-90
2021/06/12 03:22:46;;;;;;;18.00;16.30;;;;;;;;;;5056385;28;20172;-91
2021/06/12 03:25:13;;;;;;;16.73;15.20;;;;;;;;;;5038594;28;20534;-90
2021/06/12 03:27:38;;;;;;;17.50;15.87;;;;;;;;;;5038232;28;20183;-90
2021/06/12 03:30:04;;;;;;;17.80;16.20;;;;;;;;;;5038243;28;20636;-90
2021/06/12 03:32:30;;;;;;;16.13;14.73;;;;;;;;;;5055866;28;20172;-90
2021/06/12 03:34:55;;;;;;;17.47;15.63;;;;;;;;;;5056369;28;20208;-89
2021/06/12 03:37:20;;;;;;;17.10;15.60;;;;;;;;;;5055766;28;20172;-89
2021/06/12 03:39:46;;;;;;;16.50;15.10;;;;;;;;;;5056366;28;20172;-89
2021/06/12 03:42:11;;;;;;;17.37;15.87;;;;;;;;;;5057454;28;20179;-89
2021/06/12 03:44:37;;;;;;;17.03;15.53;;;;;;;;;;5080522;28;20198;-89
2021/06/12 03:47:04;;;;;;;15.90;14.50;;;;;;;;;;5080654;28;20171;-88
2021/06/12 03:49:29;;;;;;;17.67;15.97;;;;;;;;;;5080470;28;20148;-88
2021/06/12 03:51:55;;;;;;;16.27;14.53;;;;;;;;;;5080570;28;20179;-86
2021/06/12 03:54:20;;;;;;;16.67;14.97;;;;;;;;;;5080331;28;20156;-87
2021/06/12 03:56:46;;;;;;;15.33;13.90;;;;;;;;;;5045016;28;20613;-88
2021/06/12 03:59:12;;;;;;;15.60;14.20;;;;;;;;;;5054339;28;20274;-87
2021/06/12 04:01:37;;;;;;;14.70;13.40;;;;;;;;;;5055576;28;20556;-88
2021/06/12 04:04:02;;;;;;;14.43;13.13;;;;;;;;;;5055564;28;20571;-87
2021/06/12 04:06:28;;;;;;;14.45;13.15;;;;;;;;;;5055374;28;20553;-84
2021/06/12 04:08:53;;;;;;;14.07;12.68;;;;;;;;;;5055434;28;20263;-85
2021/06/12 04:11:18;;;;;;;13.00;11.90;;;;;;;;;;5055023;28;20216;-87
2021/06/12 04:13:44;;;;;;;12.70;11.55;;;;;;;;;;5055469;28;20622;-87
2021/06/12 04:16:09;;;;;;;12.32;11.32;;;;;;;;;;5055052;28;20222;-86
2021/06/12 04:18:35;;;;;;;12.40;11.40;;;;;;;;;;5037278;28;20179;-89
2021/06/12 04:21:00;;;;;;;12.23;11.13;;;;;;;;;;5055461;28;20168;-89
2021/06/12 04:23:26;;;;;;;10.80;10.00;;;;;;;;;;5054852;28;20168;-88
2021/06/12 04:25:51;;;;;;;10.60;9.88;;;;;;;;;;5055090;28;20273;-89
2021/06/12 04:28:16;;;;;;;10.18;9.38;;;;;;;;;;5054823;28;20618;-89
2021/06/12 04:30:42;;;;;;;10.52;9.48;;;;;;;;;;5037233;28;20267;-89
2021/06/12 04:33:07;;;;;;;9.85;9.15;;;;;;;;;;5054534;28;20695;-88
2021/06/12 04:35:33;;;;;;;9.98;9.27;;;;;;;;;;5054880;28;20634;-89
2021/06/12 04:37:59;;;;;;;10.05;9.25;;;;;;;;;;5054880;28;20190;-88
2021/06/12 04:40:25;;;;;;;9.70;9.00;;;;;;;;;;5054841;28;20179;-89
2021/06/12 04:42:50;;;;;;;10.35;9.40;;;;;;;;;;5055179;28;20502;-90
2021/06/12 04:45:16;;;;;;;10.27;9.43;;;;;;;;;;5055186;28;20202;-88
2021/06/12 04:47:41;;;;;;;10.35;9.55;;;;;;;;;;5054938;28;20172;-93
2021/06/12 04:50:07;;;;;;;9.48;8.60;;;;;;;;;;5037005;28;20618;-90
2021/06/12 04:52:32;;;;;;;8.95;8.25;;;;;;;;;;5054882;28;20183;-89
2021/06/12 04:54:57;;;;;;;9.55;8.75;;;;;;;;;;5054303;28;20179;-91
2021/06/12 04:57:23;;;;;;;8.40;7.80;;;;;;;;;;5054433;28;20223;-91
2021/06/12 04:59:48;;;;;;;9.00;8.00;;;;;;;;;;5054520;28;20175;-91
2021/06/12 05:02:14;;;;;;;8.40;7.70;;;;;;;;;;5054446;28;20176;-93
2021/06/12 05:04:39;;;;;;;7.82;7.30;;;;;;;;;;5036570;28;20211;-94
2021/06/12 05:07:04;;;;;;;8.13;7.47;;;;;;;;;;5036927;28;20176;-95
2021/06/12 05:09:30;;;;;;;9.15;7.85;;;;;;;;;;5036865;28;20176;-95
2021/06/12 05:11:55;;;;;;;8.63;8.00;;;;;;;;;;5037010;28;20277;-95
2021/06/12 05:14:20;;;;;;;8.30;7.60;;;;;;;;;;5037418;28;20243;-96
2021/06/12 05:16:46;;;;;;;8.10;7.50;;;;;;;;;;5037137;28;20682;-95
2021/06/12 05:19:11;;;;;;;8.52;7.82;;;;;;;;;;5037199;28;20268;-93
2021/06/12 05:21:37;;;;;;;8.52;7.78;;;;;;;;;;5036641;28;20729;-93
2021/06/12 05:24:03;;;;;;;8.93;8.15;;;;;;;;;;5036569;28;20203;-93
2021/06/12 05:26:28;;;;;;;9.10;8.27;;;;;;;;;;5037077;28;20239;-93
2021/06/12 05:28:53;;;;;;;8.95;8.18;;;;;;;;;;5036619;28;20172;-93
2021/06/12 05:31:19;;;;;;;9.52;8.60;;;;;;;;;;5036887;28;20176;-93
2021/06/12 05:33:44;;;;;;;9.20;8.40;;;;;;;;;;5036826;28;20179;-93
2021/06/12 05:36:09;;;;;;;9.40;8.48;;;;;;;;;;5036283;28;20262;-90
2021/06/12 05:38:35;;;;;;;10.10;9.20;;;;;;;;;;5054216;28;20164;-90
2021/06/12 05:41:00;;;;;;;8.40;7.80;;;;;;;;;;5054006;28;20175;-90
2021/06/12 05:43:26;;;;;;;9.50;8.60;;;;;;;;;;5053918;28;20514;-90
2021/06/12 05:45:51;;;;;;;8.73;7.93;;;;;;;;;;5053805;28;20195;-90
2021/06/12 05:48:16;;;;;;;8.77;7.97;;;;;;;;;;5035839;28;20176;-90
2021/06/12 05:50:42;;;;;;;8.77;8.07;;;;;;;;;;5036698;28;20254;-90
2021/06/12 05:53:07;;;;;;;8.63;7.90;;;;;;;;;;5053635;28;20203;-90
2021/06/12 05:55:33;;;;;;;8.25;7.60;;;;;;;;;;5053416;28;20240;-91
2021/06/12 05:57:58;;;;;;;7.53;6.82;;;;;;;;;;5053661;28;20212;-91
2021/06/12 06:00:23;;;;;;;7.25;6.60;;;;;;;;;;5053486;28;20172;-91
2021/06/12 06:02:49;;;;;;;7.45;6.85;;;;;;;;;;5035674;28;20217;-90
2021/06/12 06:05:14;;;;;;;6.80;6.30;;;;;;;;;;5054227;28;20281;-90
2021/06/12 06:07:39;;;;;;;7.03;6.00;;;;;;;;;;5053528;28;20217;-90
2021/06/12 06:10:05;;;;;;;6.35;5.85;;;;;;;;;;5053490;28;20217;-90
2021/06/12 06:12:30;;;;;;;7.35;6.63;;;;;;;;;;5053046;28;20223;-91
2021/06/12 06:14:56;;;;;;;6.47;5.97;;;;;;;;;;5053592;28;20199;-91
2021/06/12 06:17:21;;;;;;;6.05;5.63;;;;;;;;;;5053072;28;20218;-88
2021/06/12 06:19:46;;;;;;;6.50;6.00;;;;;;;;;;5035986;28;20175;-91
2021/06/12 06:22:11;;;;;;;6.38;5.88;;;;;;;;;;5055603;28;20210;-92
2021/06/12 06:24:37;;;;;;;6.38;5.78;;;;;;;;;;5057117;28;20565;-93
2021/06/12 06:27:02;;;;;;;6.55;6.00;;;;;;;;;;5058591;28;20171;-92
2021/06/12 06:29:28;;;;;;;6.40;5.82;;;;;;;;;;5082182;28;20218;-92
2021/06/12 06:31:53;;;;;;;6.15;5.60;;;;;;;;;;5081998;28;20231;-92
2021/06/12 06:34:18;;;;;;;5.95;5.55;;;;;;;;;;5061448;28;20514;-92
2021/06/12 06:36:43;;;;;;;6.20;5.70;;;;;;;;;;5057493;28;20735;-94
2021/06/12 06:39:09;;;;;;;6.28;5.78;;;;;;;;;;5057176;28;20175;-93
2021/06/12 06:41:34;;;;;;;5.82;5.22;;;;;;;;;;5056785;28;20193;-93
2021/06/12 06:43:59;;;;;;;5.97;5.47;;;;;;;;;;5057247;28;20168;-93
2021/06/12 06:46:25;;;;;;;5.82;5.43;;;;;;;;;;5056775;28;20167;-93
2021/06/12 06:48:50;;;;;;;5.57;5.28;;;;;;;;;;5056933;28;20178;-94
2021/06/12 06:51:16;;;;;;;6.10;5.60;;;;;;;;;;5057001;28;20167;-95
2021/06/12 06:53:41;;;;;;;5.68;5.32;;;;;;;;;;5056678;28;20167;-94
2021/06/12 06:56:06;;;;;;;5.78;5.22;;;;;;;;;;5056746;28;20199;-94
2021/06/12 06:58:32;;;;;;;6.45;4.95;;;;;;;;;;5056878;28;20202;-89
2021/06/12 07:00:58;;;;;;;4.57;4.38;;;;;;;;;;5056430;28;20246;-89
2021/06/12 07:03:23;;;;;;;5.05;4.63;;;;;;;;;;5056612;28;20168;-87
2021/06/12 07:05:48;;;;;;;5.05;4.65;;;;;;;;;;5056682;28;20496;-87
2021/06/12 07:08:14;;;;;;;4.75;4.20;;;;;;;;;;5056893;28;20167;-89
2021/06/12 07:10:39;;;;;;;5.68;4.50;;;;;;;;;;5056711;28;20227;-88
2021/06/12 07:13:05;;;;;;;5.35;4.95;;;;;;;;;;5056894;28;20159;-88
2021/06/12 07:15:30;;;;;;;4.53;4.22;;;;;;;;;;5056331;28;20195;-87
2021/06/12 07:17:55;;;;;;;4.82;4.50;;;;;;;;;;5056733;28;20164;-87
2021/06/12 07:20:21;;;;;;;4.70;4.30;;;;;;;;;;5056388;28;20179;-87
2021/06/12 07:22:46;;;;;;;4.90;4.50;;;;;;;;;;5056566;28;20199;-88
2021/06/12 07:25:12;;;;;;;4.80;4.43;;;;;;;;;;5056601;28;20182;-87
2021/06/12 07:27:37;;;;;;;4.32;4.00;;;;;;;;;;5056545;28;20168;-88
2021/06/12 07:30:03;;;;;;;4.57;4.18;;;;;;;;;;5055925;28;20579;-89
2021/06/12 07:32:29;;;;;;;4.45;4.15;;;;;;;;;;5055801;28;20247;-88
2021/06/12 07:34:54;;;;;;;4.85;4.30;;;;;;;;;;5056255;28;20277;-88
2021/06/12 07:37:20;;;;;;;4.18;3.83;;;;;;;;;;5056237;28;20207;-88
2021/06/12 07:39:45;;;;;;;4.47;4.07;;;;;;;;;;5044897;28;20171;-88
2021/06/12 07:42:11;;;;;;;4.30;4.00;;;;;;;;;;5041352;28;20230;-89
2021/06/12 07:44:36;;;;;;;4.30;4.00;;;;;;;;;;5051452;28;20661;-88
2021/06/12 07:47:01;;;;;;;4.20;3.90;;;;;;;;;;5056135;28;20176;-88
2021/06/12 07:49:26;;;;;;;4.25;4.05;;;;;;;;;;5055798;28;20167;-88
2021/06/12 07:51:52;;;;;;;4.13;3.90;;;;;;;;;;5055636;28;20178;-88
2021/06/12 07:54:19;;;;;;;4.45;4.05;;;;;;;;;;5056419;28;20175;-86
2021/06/12 07:56:44;;;;;;;4.45;4.13;;;;;;;;;;5055577;28;20293;-89
2021/06/12 07:59:09;;;;;;;4.35;4.05;;;;;;;;;;5055362;28;20272;-88
2021/06/12 08:01:34;;;;;;;4.00;3.80;;;;;;;;;;5055409;28;20171;-88
2021/06/12 08:04:00;;;;;;;4.30;4.00;;;;;;;;;;5054615;28;20189;-88
2021/06/12 08:06:25;;;;;;;3.92;3.72;;;;;;;;;;5055852;28;20516;-88
2021/06/12 08:08:51;;;;;;;3.90;3.70;;;;;;;;;;5055240;28;20178;-88
2021/06/12 08:11:16;;;;;;;4.72;4.22;;;;;;;;;;5058352;28;20272;-86
2021/06/12 08:13:41;;;;;;;4.40;4.10;;;;;;;;;;5075377;28;20169;-88
2021/06/12 08:16:07;;;;;;;4.40;4.10;;;;;;;;;;5052208;28;20282;-88
2021/06/12 08:18:32;;;;;;;4.50;4.20;;;;;;;;;;5055155;28;20253;-88
2021/06/12 08:20:58;;;;;;;4.80;4.43;;;;;;;;;;5055476;28;20207;-88
2021/06/12 08:23:24;;;;;;;4.80;4.22;;;;;;;;;;5047620;28;20175;-89
2021/06/12 08:25:49;;;;;;;4.80;4.38;;;;;;;;;;5054379;28;20626;-88
2021/06/12 08:28:14;;;;;;;4.40;4.10;;;;;;;;;;5046956;28;20172;-88
2021/06/12 08:30:40;;;;;;;4.30;4.10;;;;;;;;;;5055375;28;20168;-88
2021/06/12 08:33:06;;;;;;;4.82;4.25;;;;;;;;;;5052884;28;20661;-88
2021/06/12 08:35:32;;;;;;;4.70;4.40;;;;;;;;;;5052217;28;20696;-89
2021/06/12 08:37:57;;;;;;;5.10;4.65;;;;;;;;;;5054458;28;20168;-88
2021/06/12 08:40:23;;;;;;;4.85;4.55;;;;;;;;;;5054080;28;20179;-88
2021/06/12 08:42:48;;;;;;;6.10;5.70;;;;;;;;;;5054412;28;20178;-88
2021/06/12 08:45:14;;;;;;;6.38;5.60;;;;;;;;;;5053918;28;20207;-88
2021/06/12 08:47:40;;;;;;;6.20;5.57;;;;;;;;;;5054625;28;20210;-88
2021/06/12 08:50:07;;;;;;;5.68;5.28;;;;;;;;;;5054569;28;20164;-87
2021/06/12 08:52:32;;;;;;;6.32;5.75;;;;;;;;;;5054372;28;20237;-88
2021/06/12 08:54:57;;;;;;;5.90;4.95;;;;;;;;;;5054457;28;20646;-88
2021/06/12 08:57:23;;;;;;;5.75;5.22;;;;;;;;;;5045436;28;20709;-87
2021/06/12 08:59:48;;;;;;;5.75;5.35;;;;;;;;;;5049804;28;20215;-87
2021/06/12 09:02:14;;;;;;;5.88;5.38;;;;;;;;;;5036157;28;20263;-87
2021/06/12 09:04:46;;;;;;;5.70;5.38;;;;;;;;;;5034183;28;20694;-89
2021/06/12 09:07:23;;;;;;;5.80;5.40;;;;;;;;;;5053632;28;20252;-88
2021/06/12 09:09:50;;;;;;;5.20;4.82;;;;;;;;;;5054072;28;20615;-88
2021/06/12 09:12:18;;;;;;;7.05;5.43;;;;;;;;;;5054529;28;20220;-90
2021/06/12 09:15:03;;;;;;;6.63;5.20;;;;;;;;;;5038403;28;20201;-89
2021/06/12 09:17:38;;;;;;;5.20;4.80;;;;;;;;;;5033726;28;20238;-87
2021/06/12 09:20:04;;;;;;;5.90;5.40;;;;;;;;;;5034028;28;20260;-87
2021/06/12 09:22:30;;;;;;;5.72;5.22;;;;;;;;;;5034281;28;20204;-87
2021/06/12 09:24:55;;;;;;;5.55;5.15;;;;;;;;;;5034221;28;20164;-89
2021/06/12 09:27:20;;;;;;;5.47;5.07;;;;;;;;;;5034041;28;20176;-88
2021/06/12 09:29:50;;;;;;;5.82;5.32;;;;;;;;;;5033983;28;20531;-89
2021/06/12 09:32:22;;;;;;;6.07;5.68;;;;;;;;;;5053425;28;20525;-89
2021/06/12 09:34:50;;;;;;;5.53;5.03;;;;;;;;;;5054122;28;20234;-88
2021/06/12 09:37:22;;;;;;;5.35;5.03;;;;;;;;;;5053561;28;20180;-92
2021/06/12 09:40:01;;;;;;;5.40;4.90;;;;;;;;;;5053678;28;20627;-88
2021/06/12 09:42:46;;;;;;;5.78;5.20;;;;;;;;;;5054060;28;20178;-89
2021/06/12 09:45:16;;;;;;;6.97;5.80;;;;;;;;;;5053179;28;20279;-89
2021/06/12 09:47:42;;;;;;;7.72;5.50;;;;;;;;;;5054117;28;20180;-90
2021/06/12 09:50:08;;;;;;;8.30;6.63;;;;;;;;;;5054100;28;20160;-90
2021/06/12 09:52:47;;;;;;;7.47;6.57;;;;;;;;;;5053591;28;20176;-88
2021/06/12 09:55:22;;;;;;;6.68;6.10;;;;;;;;;;5053726;28;20187;-89
2021/06/12 09:57:48;;;;;;;6.65;6.07;;;;;;;;;;5051220;28;20203;-86
2021/06/12 10:00:13;;;;;;;6.13;5.63;;;;;;;;;;5057852;28;20178;-86
2021/06/12 10:02:46;;;;;;;5.85;5.35;;;;;;;;;;5056394;28;20167;-87
2021/06/12 10:05:15;;;;;;;5.72;5.30;;;;;;;;;;5057290;28;20314;-88
2021/06/12 10:07:41;;;;;;;5.90;5.50;;;;;;;;;;5057421;28;20203;-87
2021/06/12 10:10:12;;;;;;;6.82;5.57;;;;;;;;;;5057845;28;20164;-88
2021/06/12 10:12:38;;;;;;;6.30;5.70;;;;;;;;;;5057694;28;20219;-87
2021/06/12 10:15:06;;;;;;;5.90;5.40;;;;;;;;;;5057414;28;20203;-87
2021/06/12 10:17:40;;;;;;;5.72;5.22;;;;;;;;;;5057214;28;20180;-86
2021/06/12 10:20:13;;;;;;;5.95;5.45;;;;;;;;;;5057370;28;20156;-87
2021/06/12 10:22:41;;;;;;;5.75;5.30;;;;;;;;;;5057873;28;20167;-89
2021/06/12 10:25:07;;;;;;;5.50;5.10;;;;;;;;;;5038873;28;20182;-86
2021/06/12 10:27:32;;;;;;;5.20;4.80;;;;;;;;;;5057479;28;20179;-88
2021/06/12 10:29:58;;;;;;;5.63;5.22;;;;;;;;;;5057013;28;20615;-90
2021/06/12 10:32:23;;;;;;;6.13;5.63;;;;;;;;;;5057131;28;20254;-89
2021/06/12 10:34:52;;;;;;;5.85;5.40;;;;;;;;;;5057090;28;20195;-88
2021/06/12 10:37:17;;;;;;;5.78;5.38;;;;;;;;;;5052133;28;20172;-88
2021/06/12 10:39:43;;;;;;;5.75;5.28;;;;;;;;;;5051851;28;20598;-88
2021/06/12 10:42:11;;;;;;;5.72;5.32;;;;;;;;;;5056961;28;20171;-86
2021/06/12 10:44:37;;;;;;;5.65;5.25;;;;;;;;;;5056825;28;20196;-86
2021/06/12 10:47:03;;;;;;;5.00;4.63;;;;;;;;;;5055110;28;20172;-85
2021/06/12 10:49:29;;;;;;;5.82;5.38;;;;;;;;;;5053362;28;20534;-85
2021/06/12 10:51:55;;;;;;;6.07;5.63;;;;;;;;;;5054948;28;20180;-85
2021/06/12 10:54:25;;;;;;;6.15;5.55;;;;;;;;;;5053648;28;20172;-86
2021/06/12 10:56:51;;;;;;;6.18;5.70;;;;;;;;;;5054850;28;20208;-87
2021/06/12 10:59:32;;;;;;;6.20;5.70;;;;;;;;;;5054533;28;20192;-87
2021/06/12 11:02:04;;;;;;;5.78;5.28;;;;;;;;;;5055045;28;20176;-86
2021/06/12 11:04:56;;;;;;;5.85;5.45;;;;;;;;;;5048557;28;20227;-86
2021/06/12 11:07:33;;;;;;;5.90;5.30;;;;;;;;;;5029426;28;20631;-87
2021/06/12 11:10:18;;;;;;;6.18;5.70;;;;;;;;;;5052424;28;20175;-88
2021/06/12 11:12:44;;;;;;;5.90;5.53;;;;;;;;;;5035075;28;20188;-88
2021/06/12 11:15:10;;;;;;;5.90;5.40;;;;;;;;;;5034843;28;20185;-88
2021/06/12 11:17:36;;;;;;;5.40;5.10;;;;;;;;;;5034547;28;20168;-88
2021/06/12 11:20:02;;;;;;;5.65;5.25;;;;;;;;;;5034493;28;20165;-89
2021/06/12 11:22:29;;;;;;;6.18;5.70;;;;;;;;;;5034875;28;20223;-87
2021/06/12 11:24:56;;;;;;;6.43;5.80;;;;;;;;;;5034625;28;20173;-89
2021/06/12 11:27:34;;;;;;;6.55;6.00;;;;;;;;;;5035261;28;20176;-88
2021/06/12 11:30:21;;;;;;;6.18;5.60;;;;;;;;;;5034838;28;20180;-89
2021/06/12 11:32:50;;;;;;;6.10;5.63;;;;;;;;;;5036436;28;20207;-89
2021/06/12 11:35:33;;;;;;;6.45;5.85;;;;;;;;;;5035986;28;20200;-89
2021/06/12 11:37:59;;;;;;;7.90;5.60;;;;;;;;;;5036005;28;20172;-90
2021/06/12 11:40:24;;;;;;;5.93;5.43;;;;;;;;;;5036172;28;20642;-88
2021/06/12 11:42:51;;;;;;;6.72;6.30;;;;;;;;;;5036081;28;20303;-88
2021/06/12 11:45:16;;;;;;;6.20;5.80;;;;;;;;;;5035844;28;20176;-88
2021/06/12 11:47:41;;;;;;;6.57;6.07;;;;;;;;;;5035681;28;20180;-87
2021/06/12 11:50:07;;;;;;;6.25;5.85;;;;;;;;;;5035501;28;20658;-87
2021/06/12 11:52:39;;;;;;;6.53;6.03;;;;;;;;;;5035448;28;20180;-88
2021/06/12 11:55:12;;;;;;;6.05;5.65;;;;;;;;;;5035811;28;20203;-87
2021/06/12 11:57:41;;;;;;;7.05;6.20;;;;;;;;;;5035748;28;20275;-89
2021/06/12 12:00:24;;;;;;;6.22;5.80;;;;;;;;;;5035411;28;20534;-90
2021/06/12 12:03:09;;;;;;;6.22;5.82;;;;;;;;;;5036017;28;20160;-88
2021/06/12 12:05:35;;;;;;;6.30;5.90;;;;;;;;;;5027841;28;20184;-88
2021/06/12 12:08:01;;;;;;;6.38;5.88;;;;;;;;;;5033050;28;20172;-88
2021/06/12 12:10:27;;;;;;;5.90;5.50;;;;;;;;;;5037650;28;20165;-87
2021/06/12 12:12:52;;;;;;;6.30;5.80;;;;;;;;;;5043244;28;20522;-88
2021/06/12 12:15:38;;;;;;;6.30;5.80;;;;;;;;;;5035189;28;20686;-88
2021/06/12 12:18:04;;;;;;;6.35;5.88;;;;;;;;;;5035421;28;20179;-88
2021/06/12 12:20:34;;;;;;;6.20;5.70;;;;;;;;;;5023255;28;20616;-88
2021/06/12 12:22:59;;;;;;;6.38;5.90;;;;;;;;;;5032731;28;20169;-88
2021/06/12 12:25:27;;;;;;;6.88;6.28;;;;;;;;;;5035438;28;20179;-89
2021/06/12 12:28:00;;;;;;;6.55;6.05;;;;;;;;;;5035067;28;20683;-89
2021/06/12 12:30:26;;;;;;;7.57;6.60;;;;;;;;;;5035316;28;20175;-89
2021/06/12 12:32:51;;;;;;;8.52;7.55;;;;;;;;;;5034834;28;20169;-88
2021/06/12 12:35:18;;;;;;;7.80;7.30;;;;;;;;;;5034595;28;20250;-88
2021/06/12 12:37:43;;;;;;;8.65;7.78;;;;;;;;;;5040873;28;20313;-88
2021/06/12 12:40:16;;;;;;;8.02;7.38;;;;;;;;;;5054631;28;20222;-88
2021/06/12 12:42:41;;;;;;;8.88;8.15;;;;;;;;;;5054423;28;20610;-88
2021/06/12 12:45:06;;;;;;;8.07;7.47;;;;;;;;;;5054256;28;20172;-88
2021/06/12 12:47:32;;;;;;;8.50;7.88;;;;;;;;;;5054861;28;20228;-87
2021/06/12 12:49:57;;;;;;;8.77;7.90;;;;;;;;;;5042441;28;20173;-86
2021/06/12 12:52:27;;;;;;;8.90;8.00;;;;;;;;;;5034462;28;20180;-86
2021/06/12 12:54:56;;;;;;;8.30;7.50;;;;;;;;;;5034090;28;20242;-88
2021/06/12 12:57:22;;;;;;;8.68;7.80;;;;;;;;;;5034675;28;20173;-88
2021/06/12 12:59:47;;;;;;;8.70;7.90;;;;;;;;;;5035005;28;20179;-87
2021/06/12 13:02:14;;;;;;;7.93;7.32;;;;;;;;;;5034728;28;20610;-88
2021/06/12 13:04:43;;;;;;;7.97;7.22;;;;;;;;;;5034162;28;20260;-87
2021/06/12 13:07:09;;;;;;;8.65;7.78;;;;;;;;;;5034538;28;20173;-87
2021/06/12 13:09:34;;;;;;;8.25;7.55;;;;;;;;;;5034661;28;20179;-87
2021/06/12 13:12:07;;;;;;;9.88;8.98;;;;;;;;;;5027135;28;20228;-87
2021/06/12 13:14:37;;;;;;;11.90;10.88;;;;;;;;;;5014226;28;20526;-87
2021/06/12 13:17:06;;;;;;;13.02;11.77;;;;;;;;;;5014742;28;20173;-87
2021/06/12 13:19:39;;;;;;;12.32;11.40;;;;;;;;;;5014431;28;20173;-88
2021/06/12 13:22:06;;;;;;;8.55;7.85;;;;;;;;;;5014638;28;20223;-87
2021/06/12 13:24:51;;;;;;;8.77;7.93;;;;;;;;;;5014151;28;20256;-86
2021/06/12 13:27:29;;;;;;;7.90;7.30;;;;;;;;;;5014307;28;20234;-85
2021/06/12 13:29:54;;;;;;;8.60;7.70;;;;;;;;;;5013865;28;20200;-85
2021/06/12 13:32:24;;;;;;;8.48;7.85;;;;;;;;;;5013955;28;20193;-85
2021/06/12 13:34:49;;;;;;;7.53;7.03;;;;;;;;;;5013882;28;20508;-85
2021/06/12 13:37:16;;;;;;;7.82;7.13;;;;;;;;;;5013978;28;20172;-84
2021/06/12 13:39:48;;;;;;;8.80;7.68;;;;;;;;;;5014274;28;20252;-85
2021/06/12 13:42:14;;;;;;;7.85;7.35;;;;;;;;;;5014140;28;20165;-85
2021/06/12 13:44:45;;;;;;;8.15;7.45;;;;;;;;;;5013850;28;20169;-85
2021/06/12 13:47:11;;;;;;;8.20;7.50;;;;;;;;;;5014269;28;20527;-86
2021/06/12 13:49:36;;;;;;;7.25;6.57;;;;;;;;;;5014015;28;20628;-86
2021/06/12 13:52:01;;;;;;;7.80;7.10;;;;;;;;;;5014107;28;20330;-87
2021/06/12 13:54:27;;;;;;;7.85;7.07;;;;;;;;;;5013669;28;20173;-87
2021/06/12 13:56:53;;;;;;;7.75;7.10;;;;;;;;;;5013971;28;20197;-86
2021/06/12 13:59:21;;;;;;;7.18;6.68;;;;;;;;;;5013801;28;20628;-87
2021/06/12 14:01:46;;;;;;;7.63;7.00;;;;;;;;;;5014303;28;20232;-88
2021/06/12 14:04:11;;;;;;;7.40;6.90;;;;;;;;;;5015171;28;20177;-87
2021/06/12 14:06:37;;;;;;;7.43;6.93;;;;;;;;;;5033603;28;20241;-87
2021/06/12 14:09:02;;;;;;;7.60;7.00;;;;;;;;;;5033397;28;20172;-87
2021/06/12 14:11:28;;;;;;;7.50;6.78;;;;;;;;;;5032960;28;20247;-86
2021/06/12 14:13:53;;;;;;;7.53;7.03;;;;;;;;;;5024264;28;20640;-91
2021/06/12 14:16:18;;;;;;;6.90;6.40;;;;;;;;;;5014643;28;20204;-88
2021/06/12 14:18:44;;;;;;;6.22;5.68;;;;;;;;;;5013688;28;20174;-88
2021/06/12 14:21:09;;;;;;;6.13;5.72;;;;;;;;;;5014147;28;20639;-87
2021/06/12 14:23:35;;;;;;;6.35;5.85;;;;;;;;;;5013516;28;20170;-88
2021/06/12 14:26:02;;;;;;;6.93;6.22;;;;;;;;;;5013860;28;20181;-88
2021/06/12 14:28:29;;;;;;;6.32;5.70;;;;;;;;;;5013848;28;20562;-90
2021/06/12 14:30:54;;;;;;;5.93;5.47;;;;;;;;;;5013677;28;20173;-87
2021/06/12 14:33:20;;;;;;;6.50;6.00;;;;;;;;;;5013651;28;20642;-90